sensor_id;sensor_type;location;lat;lon;timestamp;P1;durP1;ratioP1;P2;durP2;ratioP2
11203;SDS011;5659;49.408;11.116;2022-08-21T00:00:41;15.90;;;10.68;;
11203;SDS011;5659;49.408;11.116;2022-08-21T00:03:08;24.98;;;9.93;;
11203;SDS011;5659;49.408;11.116;2022-08-21T00:05:39;18.63;;;10.30;;
11203;SDS011;5659;49.408;11.116;2022-08-21T00:08:07;14.27;;;10.02;;
11203;SDS011;5659;49.408;11.116;2022-08-21T00:10:33;15.05;;;10.55;;
11203;SDS011;5659;49.408;11.116;2022-08-21T00:13:00;15.68;;;10.48;;
11203;SDS011;5659;49.408;11.116;2022-08-21T00:15:27;15.40;;;10.95;;
11203;SDS011;5659;49.408;11.116;2022-08-21T00:17:53;14.45;;;10.57;;
11203;SDS011;5659;49.408;11.116;2022-08-21T00:20:20;20.10;;;10.48;;
11203;SDS011;5659;49.408;11.116;2022-08-21T00:22:46;19.05;;;10.43;;
11203;SDS011;5659;49.408;11.116;2022-08-21T00:25:13;15.38;;;9.88;;
11203;SDS011;5659;49.408;11.116;2022-08-21T00:27:40;16.50;;;10.45;;
11203;SDS011;5659;49.408;11.116;2022-08-21T00:30:12;17.80;;;9.63;;
11203;SDS011;5659;49.408;11.116;2022-08-21T00:32:38;17.45;;;10.90;;
11203;SDS011;5659;49.408;11.116;2022-08-21T00:35:05;14.15;;;10.43;;
11203;SDS011;5659;49.408;11.116;2022-08-21T00:37:32;16.70;;;10.38;;
11203;SDS011;5659;49.408;11.116;2022-08-21T00:39:58;17.20;;;10.98;;
11203;SDS011;5659;49.408;11.116;2022-08-21T00:42:24;12.82;;;10.60;;
11203;SDS011;5659;49.408;11.116;2022-08-21T00:44:51;14.05;;;10.73;;
11203;SDS011;5659;49.408;11.116;2022-08-21T00:47:17;16.55;;;11.55;;
11203;SDS011;5659;49.408;11.116;2022-08-21T00:49:44;17.83;;;10.30;;
11203;SDS011;5659;49.408;11.116;2022-08-21T00:52:11;13.45;;;9.82;;
11203;SDS011;5659;49.408;11.116;2022-08-21T00:54:39;15.25;;;11.32;;
11203;SDS011;5659;49.408;11.116;2022-08-21T00:57:17;15.65;;;11.23;;
11203;SDS011;5659;49.408;11.116;2022-08-21T00:59:45;18.10;;;10.68;;
11203;SDS011;5659;49.408;11.116;2022-08-21T01:02:13;16.75;;;10.63;;
11203;SDS011;5659;49.408;11.116;2022-08-21T01:04:39;14.32;;;10.60;;
11203;SDS011;5659;49.408;11.116;2022-08-21T01:07:05;19.25;;;10.70;;
11203;SDS011;5659;49.408;11.116;2022-08-21T01:09:32;16.63;;;11.40;;
11203;SDS011;5659;49.408;11.116;2022-08-21T01:11:58;14.48;;;10.23;;
11203;SDS011;5659;49.408;11.116;2022-08-21T01:14:24;17.63;;;10.88;;
11203;SDS011;5659;49.408;11.116;2022-08-21T01:16:51;16.48;;;10.90;;
11203;SDS011;5659;49.408;11.116;2022-08-21T01:19:18;13.95;;;9.93;;
11203;SDS011;5659;49.408;11.116;2022-08-21T01:21:45;15.38;;;9.82;;
11203;SDS011;5659;49.408;11.116;2022-08-21T01:24:12;15.10;;;9.88;;
11203;SDS011;5659;49.408;11.116;2022-08-21T01:26:38;14.85;;;10.10;;
11203;SDS011;5659;49.408;11.116;2022-08-21T01:29:16;15.27;;;10.55;;
11203;SDS011;5659;49.408;11.116;2022-08-21T01:31:42;14.23;;;9.38;;
11203;SDS011;5659;49.408;11.116;2022-08-21T01:34:08;14.95;;;10.43;;
11203;SDS011;5659;49.408;11.116;2022-08-21T01:36:34;21.90;;;10.43;;
11203;SDS011;5659;49.408;11.116;2022-08-21T01:39:01;17.85;;;10.52;;
11203;SDS011;5659;49.408;11.116;2022-08-21T01:41:27;14.73;;;10.18;;
11203;SDS011;5659;49.408;11.116;2022-08-21T01:43:53;17.65;;;9.23;;
11203;SDS011;5659;49.408;11.116;2022-08-21T01:46:19;17.60;;;9.27;;
11203;SDS011;5659;49.408;11.116;2022-08-21T01:48:45;18.15;;;9.70;;
11203;SDS011;5659;49.408;11.116;2022-08-21T01:51:11;13.27;;;9.15;;
11203;SDS011;5659;49.408;11.116;2022-08-21T01:53:37;16.60;;;9.25;;
11203;SDS011;5659;49.408;11.116;2022-08-21T01:56:04;16.85;;;9.60;;
11203;SDS011;5659;49.408;11.116;2022-08-21T01:58:30;13.82;;;9.77;;
11203;SDS011;5659;49.408;11.116;2022-08-21T02:00:56;17.48;;;9.40;;
11203;SDS011;5659;49.408;11.116;2022-08-21T02:03:22;13.52;;;9.43;;
11203;SDS011;5659;49.408;11.116;2022-08-21T02:05:48;14.00;;;10.18;;
11203;SDS011;5659;49.408;11.116;2022-08-21T02:08:14;15.48;;;9.57;;
11203;SDS011;5659;49.408;11.116;2022-08-21T02:10:40;17.40;;;9.80;;
11203;SDS011;5659;49.408;11.116;2022-08-21T02:13:07;16.48;;;9.55;;
11203;SDS011;5659;49.408;11.116;2022-08-21T02:15:34;11.23;;;9.15;;
11203;SDS011;5659;49.408;11.116;2022-08-21T02:18:01;17.70;;;10.30;;
11203;SDS011;5659;49.408;11.116;2022-08-21T02:20:29;14.27;;;10.85;;
11203;SDS011;5659;49.408;11.116;2022-08-21T02:22:55;19.10;;;10.70;;
11203;SDS011;5659;49.408;11.116;2022-08-21T02:25:23;17.80;;;10.30;;
11203;SDS011;5659;49.408;11.116;2022-08-21T02:27:49;14.88;;;10.15;;
11203;SDS011;5659;49.408;11.116;2022-08-21T02:30:16;21.20;;;11.55;;
11203;SDS011;5659;49.408;11.116;2022-08-21T02:32:43;18.85;;;10.60;;
11203;SDS011;5659;49.408;11.116;2022-08-21T02:35:09;19.65;;;10.52;;
11203;SDS011;5659;49.408;11.116;2022-08-21T02:37:52;17.35;;;11.20;;
11203;SDS011;5659;49.408;11.116;2022-08-21T02:40:20;16.33;;;9.70;;
11203;SDS011;5659;49.408;11.116;2022-08-21T02:42:46;14.00;;;10.48;;
11203;SDS011;5659;49.408;11.116;2022-08-21T02:45:13;22.00;;;10.95;;
11203;SDS011;5659;49.408;11.116;2022-08-21T02:47:39;16.30;;;11.35;;
11203;SDS011;5659;49.408;11.116;2022-08-21T02:50:06;18.45;;;12.05;;
11203;SDS011;5659;49.408;11.116;2022-08-21T02:52:32;16.13;;;10.90;;
11203;SDS011;5659;49.408;11.116;2022-08-21T02:54:59;22.80;;;12.40;;
11203;SDS011;5659;49.408;11.116;2022-08-21T02:57:25;14.75;;;11.23;;
11203;SDS011;5659;49.408;11.116;2022-08-21T02:59:51;15.73;;;11.10;;
11203;SDS011;5659;49.408;11.116;2022-08-21T03:02:17;14.65;;;11.10;;
11203;SDS011;5659;49.408;11.116;2022-08-21T03:04:43;16.55;;;10.85;;
11203;SDS011;5659;49.408;11.116;2022-08-21T03:07:08;16.52;;;10.60;;
11203;SDS011;5659;49.408;11.116;2022-08-21T03:09:34;12.30;;;10.13;;
11203;SDS011;5659;49.408;11.116;2022-08-21T03:12:00;21.88;;;10.88;;
11203;SDS011;5659;49.408;11.116;2022-08-21T03:14:27;19.33;;;11.07;;
11203;SDS011;5659;49.408;11.116;2022-08-21T03:16:52;27.52;;;15.45;;
11203;SDS011;5659;49.408;11.116;2022-08-21T03:19:19;29.92;;;14.98;;
11203;SDS011;5659;49.408;11.116;2022-08-21T03:21:45;22.52;;;12.88;;
11203;SDS011;5659;49.408;11.116;2022-08-21T03:24:11;26.35;;;14.20;;
11203;SDS011;5659;49.408;11.116;2022-08-21T03:26:37;30.23;;;14.85;;
11203;SDS011;5659;49.408;11.116;2022-08-21T03:29:03;23.15;;;14.93;;
11203;SDS011;5659;49.408;11.116;2022-08-21T03:31:32;28.45;;;15.07;;
11203;SDS011;5659;49.408;11.116;2022-08-21T03:33:58;26.30;;;16.55;;
11203;SDS011;5659;49.408;11.116;2022-08-21T03:36:24;94.68;;;19.80;;
11203;SDS011;5659;49.408;11.116;2022-08-21T03:38:50;140.80;;;23.52;;
11203;SDS011;5659;49.408;11.116;2022-08-21T03:41:16;120.85;;;20.98;;
11203;SDS011;5659;49.408;11.116;2022-08-21T03:43:42;148.80;;;23.88;;
11203;SDS011;5659;49.408;11.116;2022-08-21T03:46:08;62.78;;;20.83;;
11203;SDS011;5659;49.408;11.116;2022-08-21T03:48:35;52.30;;;21.35;;
11203;SDS011;5659;49.408;11.116;2022-08-21T03:51:02;50.78;;;21.55;;
11203;SDS011;5659;49.408;11.116;2022-08-21T03:53:28;46.03;;;20.35;;
11203;SDS011;5659;49.408;11.116;2022-08-21T03:55:55;45.38;;;19.45;;
11203;SDS011;5659;49.408;11.116;2022-08-21T03:58:23;40.72;;;19.63;;
11203;SDS011;5659;49.408;11.116;2022-08-21T04:00:50;35.28;;;18.55;;
11203;SDS011;5659;49.408;11.116;2022-08-21T04:03:17;45.63;;;18.95;;
11203;SDS011;5659;49.408;11.116;2022-08-21T04:05:43;69.72;;;20.10;;
11203;SDS011;5659;49.408;11.116;2022-08-21T04:08:10;55.97;;;19.77;;
11203;SDS011;5659;49.408;11.116;2022-08-21T04:10:37;55.55;;;19.48;;
11203;SDS011;5659;49.408;11.116;2022-08-21T04:13:05;64.60;;;22.05;;
11203;SDS011;5659;49.408;11.116;2022-08-21T04:15:31;62.13;;;21.17;;
11203;SDS011;5659;49.408;11.116;2022-08-21T04:17:57;47.22;;;20.38;;
11203;SDS011;5659;49.408;11.116;2022-08-21T04:20:23;52.28;;;22.73;;
11203;SDS011;5659;49.408;11.116;2022-08-21T04:22:50;88.38;;;23.33;;
11203;SDS011;5659;49.408;11.116;2022-08-21T04:25:17;72.45;;;22.33;;
11203;SDS011;5659;49.408;11.116;2022-08-21T04:27:44;102.50;;;23.35;;
11203;SDS011;5659;49.408;11.116;2022-08-21T04:30:10;96.65;;;24.48;;
11203;SDS011;5659;49.408;11.116;2022-08-21T04:32:37;55.22;;;24.02;;
11203;SDS011;5659;49.408;11.116;2022-08-21T04:35:05;87.28;;;26.55;;
11203;SDS011;5659;49.408;11.116;2022-08-21T04:37:32;63.15;;;25.02;;
11203;SDS011;5659;49.408;11.116;2022-08-21T04:39:58;75.65;;;25.02;;
11203;SDS011;5659;49.408;11.116;2022-08-21T04:42:24;77.53;;;26.23;;
11203;SDS011;5659;49.408;11.116;2022-08-21T04:44:51;92.63;;;26.35;;
11203;SDS011;5659;49.408;11.116;2022-08-21T04:47:17;85.88;;;26.30;;
11203;SDS011;5659;49.408;11.116;2022-08-21T04:49:43;221.10;;;28.75;;
11203;SDS011;5659;49.408;11.116;2022-08-21T04:52:10;154.43;;;28.10;;
11203;SDS011;5659;49.408;11.116;2022-08-21T04:54:36;240.93;;;29.30;;
11203;SDS011;5659;49.408;11.116;2022-08-21T04:57:05;185.02;;;28.08;;
11203;SDS011;5659;49.408;11.116;2022-08-21T04:59:36;265.02;;;31.05;;
11203;SDS011;5659;49.408;11.116;2022-08-21T05:02:02;273.77;;;33.83;;
11203;SDS011;5659;49.408;11.116;2022-08-21T05:04:29;223.30;;;26.33;;
11203;SDS011;5659;49.408;11.116;2022-08-21T05:06:56;344.48;;;30.75;;
11203;SDS011;5659;49.408;11.116;2022-08-21T05:09:23;487.02;;;36.05;;
11203;SDS011;5659;49.408;11.116;2022-08-21T05:11:50;421.48;;;36.35;;
11203;SDS011;5659;49.408;11.116;2022-08-21T05:14:17;393.90;;;34.65;;
11203;SDS011;5659;49.408;11.116;2022-08-21T05:16:44;170.65;;;31.25;;
11203;SDS011;5659;49.408;11.116;2022-08-21T05:19:11;260.33;;;30.48;;
11203;SDS011;5659;49.408;11.116;2022-08-21T05:21:38;294.67;;;28.67;;
11203;SDS011;5659;49.408;11.116;2022-08-21T05:24:04;313.83;;;28.55;;
11203;SDS011;5659;49.408;11.116;2022-08-21T05:26:31;326.02;;;31.83;;
11203;SDS011;5659;49.408;11.116;2022-08-21T05:28:57;299.17;;;27.55;;
11203;SDS011;5659;49.408;11.116;2022-08-21T05:31:23;432.67;;;37.33;;
11203;SDS011;5659;49.408;11.116;2022-08-21T05:33:49;521.40;;;37.47;;
11203;SDS011;5659;49.408;11.116;2022-08-21T05:36:16;405.45;;;39.40;;
11203;SDS011;5659;49.408;11.116;2022-08-21T05:38:47;653.65;;;45.22;;
11203;SDS011;5659;49.408;11.116;2022-08-21T05:41:13;176.98;;;33.80;;
11203;SDS011;5659;49.408;11.116;2022-08-21T05:43:39;291.50;;;33.90;;
11203;SDS011;5659;49.408;11.116;2022-08-21T05:46:06;193.45;;;31.65;;
11203;SDS011;5659;49.408;11.116;2022-08-21T05:48:32;249.13;;;29.50;;
11203;SDS011;5659;49.408;11.116;2022-08-21T05:51:03;295.35;;;27.80;;
11203;SDS011;5659;49.408;11.116;2022-08-21T05:53:30;314.73;;;29.30;;
11203;SDS011;5659;49.408;11.116;2022-08-21T05:55:56;271.90;;;29.08;;
11203;SDS011;5659;49.408;11.116;2022-08-21T05:58:22;200.93;;;27.40;;
11203;SDS011;5659;49.408;11.116;2022-08-21T06:00:48;290.42;;;27.10;;
11203;SDS011;5659;49.408;11.116;2022-08-21T06:03:23;218.35;;;26.60;;
11203;SDS011;5659;49.408;11.116;2022-08-21T06:05:49;190.98;;;26.27;;
11203;SDS011;5659;49.408;11.116;2022-08-21T06:08:16;142.95;;;25.73;;
11203;SDS011;5659;49.408;11.116;2022-08-21T06:10:42;199.70;;;26.52;;
11203;SDS011;5659;49.408;11.116;2022-08-21T06:13:08;203.68;;;27.27;;
11203;SDS011;5659;49.408;11.116;2022-08-21T06:15:35;92.50;;;24.48;;
11203;SDS011;5659;49.408;11.116;2022-08-21T06:18:01;101.93;;;25.13;;
11203;SDS011;5659;49.408;11.116;2022-08-21T06:20:27;183.23;;;25.73;;
11203;SDS011;5659;49.408;11.116;2022-08-21T06:22:53;224.48;;;26.95;;
11203;SDS011;5659;49.408;11.116;2022-08-21T06:25:19;172.68;;;26.02;;
11203;SDS011;5659;49.408;11.116;2022-08-21T06:27:45;199.02;;;27.25;;
11203;SDS011;5659;49.408;11.116;2022-08-21T06:30:12;76.75;;;25.38;;
11203;SDS011;5659;49.408;11.116;2022-08-21T06:32:38;85.80;;;25.55;;
11203;SDS011;5659;49.408;11.116;2022-08-21T06:35:04;80.53;;;24.20;;
11203;SDS011;5659;49.408;11.116;2022-08-21T06:37:31;53.50;;;24.00;;
11203;SDS011;5659;49.408;11.116;2022-08-21T06:39:57;92.57;;;23.95;;
11203;SDS011;5659;49.408;11.116;2022-08-21T06:42:23;65.25;;;23.48;;
11203;SDS011;5659;49.408;11.116;2022-08-21T06:44:49;44.28;;;23.58;;
11203;SDS011;5659;49.408;11.116;2022-08-21T06:47:15;78.20;;;24.13;;
11203;SDS011;5659;49.408;11.116;2022-08-21T06:49:41;52.70;;;23.23;;
11203;SDS011;5659;49.408;11.116;2022-08-21T06:52:11;46.50;;;23.15;;
11203;SDS011;5659;49.408;11.116;2022-08-21T06:54:38;46.50;;;24.35;;
11203;SDS011;5659;49.408;11.116;2022-08-21T06:57:04;44.38;;;25.52;;
11203;SDS011;5659;49.408;11.116;2022-08-21T06:59:31;44.25;;;24.50;;
11203;SDS011;5659;49.408;11.116;2022-08-21T07:01:57;46.78;;;25.75;;
11203;SDS011;5659;49.408;11.116;2022-08-21T07:04:23;40.75;;;24.63;;
11203;SDS011;5659;49.408;11.116;2022-08-21T07:06:49;35.25;;;24.13;;
11203;SDS011;5659;49.408;11.116;2022-08-21T07:09:15;34.05;;;25.13;;
11203;SDS011;5659;49.408;11.116;2022-08-21T07:11:42;44.65;;;24.60;;
11203;SDS011;5659;49.408;11.116;2022-08-21T07:14:08;31.98;;;23.65;;
11203;SDS011;5659;49.408;11.116;2022-08-21T07:16:34;28.38;;;22.88;;
11203;SDS011;5659;49.408;11.116;2022-08-21T07:19:00;26.65;;;21.58;;
11203;SDS011;5659;49.408;11.116;2022-08-21T07:21:26;29.75;;;23.42;;
11203;SDS011;5659;49.408;11.116;2022-08-21T07:23:52;29.10;;;22.55;;
11203;SDS011;5659;49.408;11.116;2022-08-21T07:26:20;28.55;;;20.77;;
11203;SDS011;5659;49.408;11.116;2022-08-21T07:28:47;26.23;;;22.65;;
11203;SDS011;5659;49.408;11.116;2022-08-21T07:31:14;28.48;;;22.33;;
11203;SDS011;5659;49.408;11.116;2022-08-21T07:33:40;26.70;;;20.23;;
11203;SDS011;5659;49.408;11.116;2022-08-21T07:36:06;24.45;;;20.80;;
11203;SDS011;5659;49.408;11.116;2022-08-21T07:38:32;22.25;;;19.10;;
11203;SDS011;5659;49.408;11.116;2022-08-21T07:40:59;23.48;;;19.73;;
11203;SDS011;5659;49.408;11.116;2022-08-21T07:43:26;22.48;;;20.08;;
11203;SDS011;5659;49.408;11.116;2022-08-21T07:45:52;20.98;;;18.63;;
11203;SDS011;5659;49.408;11.116;2022-08-21T07:48:19;25.90;;;20.23;;
11203;SDS011;5659;49.408;11.116;2022-08-21T07:50:46;24.45;;;19.08;;
11203;SDS011;5659;49.408;11.116;2022-08-21T07:53:12;22.00;;;19.15;;
11203;SDS011;5659;49.408;11.116;2022-08-21T07:55:38;24.13;;;20.52;;
11203;SDS011;5659;49.408;11.116;2022-08-21T07:58:04;25.98;;;21.67;;
11203;SDS011;5659;49.408;11.116;2022-08-21T08:00:30;22.50;;;20.00;;
11203;SDS011;5659;49.408;11.116;2022-08-21T08:02:56;25.05;;;20.13;;
11203;SDS011;5659;49.408;11.116;2022-08-21T08:05:24;23.80;;;20.88;;
11203;SDS011;5659;49.408;11.116;2022-08-21T08:07:50;24.15;;;20.83;;
11203;SDS011;5659;49.408;11.116;2022-08-21T08:10:17;22.98;;;20.17;;
11203;SDS011;5659;49.408;11.116;2022-08-21T08:12:43;22.65;;;20.27;;
11203;SDS011;5659;49.408;11.116;2022-08-21T08:15:20;22.95;;;19.92;;
11203;SDS011;5659;49.408;11.116;2022-08-21T08:17:46;23.30;;;20.73;;
11203;SDS011;5659;49.408;11.116;2022-08-21T08:20:13;23.95;;;21.35;;
11203;SDS011;5659;49.408;11.116;2022-08-21T08:22:40;25.38;;;22.10;;
11203;SDS011;5659;49.408;11.116;2022-08-21T08:25:07;24.27;;;21.50;;
11203;SDS011;5659;49.408;11.116;2022-08-21T08:27:33;26.33;;;23.48;;
11203;SDS011;5659;49.408;11.116;2022-08-21T08:29:59;24.25;;;21.65;;
11203;SDS011;5659;49.408;11.116;2022-08-21T08:32:26;29.42;;;22.63;;
11203;SDS011;5659;49.408;11.116;2022-08-21T08:34:52;25.20;;;22.55;;
11203;SDS011;5659;49.408;11.116;2022-08-21T08:37:18;25.42;;;22.80;;
11203;SDS011;5659;49.408;11.116;2022-08-21T08:39:45;23.60;;;21.20;;
11203;SDS011;5659;49.408;11.116;2022-08-21T08:42:12;25.60;;;20.25;;
11203;SDS011;5659;49.408;11.116;2022-08-21T08:44:48;22.45;;;20.05;;
11203;SDS011;5659;49.408;11.116;2022-08-21T08:47:16;21.67;;;19.38;;
11203;SDS011;5659;49.408;11.116;2022-08-21T08:49:49;21.40;;;19.13;;
11203;SDS011;5659;49.408;11.116;2022-08-21T08:55:18;21.50;;;18.42;;
11203;SDS011;5659;49.408;11.116;2022-08-21T08:57:46;19.52;;;17.02;;
11203;SDS011;5659;49.408;11.116;2022-08-21T09:00:14;19.45;;;17.48;;
11203;SDS011;5659;49.408;11.116;2022-08-21T09:02:42;19.05;;;17.05;;
11203;SDS011;5659;49.408;11.116;2022-08-21T09:05:09;19.05;;;17.15;;
11203;SDS011;5659;49.408;11.116;2022-08-21T09:25:46;16.15;;;14.65;;
11203;SDS011;5659;49.408;11.116;2022-08-21T09:28:16;15.93;;;14.32;;
11203;SDS011;5659;49.408;11.116;2022-08-21T09:30:42;17.77;;;14.63;;
11203;SDS011;5659;49.408;11.116;2022-08-21T09:33:09;15.30;;;13.90;;
11203;SDS011;5659;49.408;11.116;2022-08-21T09:35:47;15.43;;;14.02;;
11203;SDS011;5659;49.408;11.116;2022-08-21T09:38:22;15.60;;;12.45;;
11203;SDS011;5659;49.408;11.116;2022-08-21T09:40:54;14.32;;;12.93;;
11203;SDS011;5659;49.408;11.116;2022-08-21T09:43:21;14.57;;;13.13;;
11203;SDS011;5659;49.408;11.116;2022-08-21T09:46:00;13.80;;;12.45;;
11203;SDS011;5659;49.408;11.116;2022-08-21T09:48:27;12.65;;;11.45;;
11203;SDS011;5659;49.408;11.116;2022-08-21T09:51:04;12.13;;;11.02;;
11203;SDS011;5659;49.408;11.116;2022-08-21T09:53:30;11.88;;;10.77;;
11203;SDS011;5659;49.408;11.116;2022-08-21T09:56:05;12.93;;;11.73;;
11203;SDS011;5659;49.408;11.116;2022-08-21T09:59:00;11.82;;;10.73;;
11203;SDS011;5659;49.408;11.116;2022-08-21T10:01:26;12.73;;;10.00;;
11203;SDS011;5659;49.408;11.116;2022-08-21T10:04:05;12.57;;;11.38;;
11203;SDS011;5659;49.408;11.116;2022-08-21T10:06:33;14.30;;;10.77;;
11203;SDS011;5659;49.408;11.116;2022-08-21T10:09:04;10.85;;;9.80;;
11203;SDS011;5659;49.408;11.116;2022-08-21T10:11:31;12.75;;;11.40;;
11203;SDS011;5659;49.408;11.116;2022-08-21T10:14:01;11.73;;;10.63;;
11203;SDS011;5659;49.408;11.116;2022-08-21T10:16:32;12.45;;;11.27;;
11203;SDS011;5659;49.408;11.116;2022-08-21T10:24:04;11.57;;;10.05;;
11203;SDS011;5659;49.408;11.116;2022-08-21T10:31:56;10.88;;;9.77;;
11203;SDS011;5659;49.408;11.116;2022-08-21T10:37:15;10.63;;;9.63;;
11203;SDS011;5659;49.408;11.116;2022-08-21T10:45:08;9.63;;;7.82;;
11203;SDS011;5659;49.408;11.116;2022-08-21T10:47:40;8.70;;;7.78;;
11203;SDS011;5659;49.408;11.116;2022-08-21T10:53:14;8.63;;;7.82;;
11203;SDS011;5659;49.408;11.116;2022-08-21T10:58:29;7.28;;;6.28;;
11203;SDS011;5659;49.408;11.116;2022-08-21T11:01:02;7.38;;;5.35;;
11203;SDS011;5659;49.408;11.116;2022-08-21T11:03:33;6.78;;;6.18;;
11203;SDS011;5659;49.408;11.116;2022-08-21T11:06:05;6.32;;;5.72;;
11203;SDS011;5659;49.408;11.116;2022-08-21T11:08:39;6.40;;;5.78;;
11203;SDS011;5659;49.408;11.116;2022-08-21T11:11:25;6.03;;;4.70;;
11203;SDS011;5659;49.408;11.116;2022-08-21T11:13:56;5.75;;;5.25;;
11203;SDS011;5659;49.408;11.116;2022-08-21T11:16:26;6.03;;;5.45;;
11203;SDS011;5659;49.408;11.116;2022-08-21T11:19:00;5.30;;;4.80;;
11203;SDS011;5659;49.408;11.116;2022-08-21T11:21:36;7.03;;;6.13;;
11203;SDS011;5659;49.408;11.116;2022-08-21T11:24:17;6.40;;;5.07;;
11203;SDS011;5659;49.408;11.116;2022-08-21T11:37:31;3.80;;;3.50;;
11203;SDS011;5659;49.408;11.116;2022-08-21T11:42:50;3.72;;;3.03;;
11203;SDS011;5659;49.408;11.116;2022-08-21T11:50:28;3.42;;;3.17;;
11203;SDS011;5659;49.408;11.116;2022-08-21T11:58:41;3.70;;;3.40;;
11203;SDS011;5659;49.408;11.116;2022-08-21T12:01:12;3.22;;;2.97;;
11203;SDS011;5659;49.408;11.116;2022-08-21T12:03:42;3.38;;;3.08;;
11203;SDS011;5659;49.408;11.116;2022-08-21T12:06:16;6.22;;;3.78;;
11203;SDS011;5659;49.408;11.116;2022-08-21T12:09:29;5.75;;;2.90;;
11203;SDS011;5659;49.408;11.116;2022-08-21T12:11:49;3.58;;;3.03;;
11203;SDS011;5659;49.408;11.116;2022-08-21T12:14:17;3.80;;;3.20;;
11203;SDS011;5659;49.408;11.116;2022-08-21T12:16:47;3.03;;;2.70;;
11203;SDS011;5659;49.408;11.116;2022-08-21T12:21:53;3.15;;;2.85;;
11203;SDS011;5659;49.408;11.116;2022-08-21T12:24:30;3.25;;;2.88;;
11203;SDS011;5659;49.408;11.116;2022-08-21T12:26:59;3.30;;;3.00;;
11203;SDS011;5659;49.408;11.116;2022-08-21T12:29:26;4.38;;;3.03;;
11203;SDS011;5659;49.408;11.116;2022-08-21T12:31:59;3.10;;;2.70;;
11203;SDS011;5659;49.408;11.116;2022-08-21T12:34:36;2.85;;;2.63;;
11203;SDS011;5659;49.408;11.116;2022-08-21T12:37:05;3.03;;;2.75;;
11203;SDS011;5659;49.408;11.116;2022-08-21T12:39:33;3.28;;;3.00;;
11203;SDS011;5659;49.408;11.116;2022-08-21T12:42:09;2.88;;;2.65;;
11203;SDS011;5659;49.408;11.116;2022-08-21T12:44:41;4.57;;;3.03;;
11203;SDS011;5659;49.408;11.116;2022-08-21T12:47:16;4.38;;;2.80;;
11203;SDS011;5659;49.408;11.116;2022-08-21T12:49:51;3.42;;;2.85;;
11203;SDS011;5659;49.408;11.116;2022-08-21T12:52:29;3.20;;;2.90;;
11203;SDS011;5659;49.408;11.116;2022-08-21T12:54:56;3.55;;;2.90;;
11203;SDS011;5659;49.408;11.116;2022-08-21T12:57:25;3.50;;;3.20;;
11203;SDS011;5659;49.408;11.116;2022-08-21T12:59:52;2.78;;;2.58;;
11203;SDS011;5659;49.408;11.116;2022-08-21T13:02:20;3.20;;;2.90;;
11203;SDS011;5659;49.408;11.116;2022-08-21T13:04:47;3.50;;;3.20;;
11203;SDS011;5659;49.408;11.116;2022-08-21T13:07:16;3.47;;;3.17;;
11203;SDS011;5659;49.408;11.116;2022-08-21T13:09:49;3.95;;;3.30;;
11203;SDS011;5659;49.408;11.116;2022-08-21T13:12:16;3.75;;;3.25;;
11203;SDS011;5659;49.408;11.116;2022-08-21T13:14:43;3.55;;;3.25;;
11203;SDS011;5659;49.408;11.116;2022-08-21T13:17:12;4.22;;;3.03;;
11203;SDS011;5659;49.408;11.116;2022-08-21T13:19:39;3.70;;;3.40;;
11203;SDS011;5659;49.408;11.116;2022-08-21T13:22:11;3.40;;;3.10;;
11203;SDS011;5659;49.408;11.116;2022-08-21T13:24:37;3.92;;;3.53;;
11203;SDS011;5659;49.408;11.116;2022-08-21T13:27:15;4.30;;;3.90;;
11203;SDS011;5659;49.408;11.116;2022-08-21T13:29:42;3.80;;;3.50;;
11203;SDS011;5659;49.408;11.116;2022-08-21T13:32:13;6.30;;;3.40;;
11203;SDS011;5659;49.408;11.116;2022-08-21T13:34:44;4.85;;;3.63;;
11203;SDS011;5659;49.408;11.116;2022-08-21T13:37:10;5.35;;;4.18;;
11203;SDS011;5659;49.408;11.116;2022-08-21T13:39:37;3.47;;;3.17;;
11203;SDS011;5659;49.408;11.116;2022-08-21T13:42:03;5.57;;;3.58;;
11203;SDS011;5659;49.408;11.116;2022-08-21T13:46:58;3.70;;;3.40;;
11203;SDS011;5659;49.408;11.116;2022-08-21T13:49:32;4.60;;;3.15;;
11203;SDS011;5659;49.408;11.116;2022-08-21T13:51:58;5.05;;;3.00;;
11203;SDS011;5659;49.408;11.116;2022-08-21T13:54:26;3.75;;;2.90;;
11203;SDS011;5659;49.408;11.116;2022-08-21T13:56:52;3.22;;;2.92;;
11203;SDS011;5659;49.408;11.116;2022-08-21T14:01:52;3.17;;;2.90;;
11203;SDS011;5659;49.408;11.116;2022-08-21T14:04:35;5.20;;;2.83;;
11203;SDS011;5659;49.408;11.116;2022-08-21T14:07:01;3.50;;;3.20;;
11203;SDS011;5659;49.408;11.116;2022-08-21T14:09:30;2.90;;;2.70;;
11203;SDS011;5659;49.408;11.116;2022-08-21T14:11:57;3.40;;;3.10;;
11203;SDS011;5659;49.408;11.116;2022-08-21T14:14:25;4.05;;;3.45;;
11203;SDS011;5659;49.408;11.116;2022-08-21T14:16:54;3.63;;;3.20;;
11203;SDS011;5659;49.408;11.116;2022-08-21T14:19:42;4.47;;;3.08;;
11203;SDS011;5659;49.408;11.116;2022-08-21T14:22:23;6.30;;;4.40;;
11203;SDS011;5659;49.408;11.116;2022-08-21T14:24:58;3.72;;;3.15;;
11203;SDS011;5659;49.408;11.116;2022-08-21T14:27:25;3.35;;;2.88;;
11203;SDS011;5659;49.408;11.116;2022-08-21T14:29:56;2.80;;;2.60;;
11203;SDS011;5659;49.408;11.116;2022-08-21T14:32:24;3.15;;;2.85;;
11203;SDS011;5659;49.408;11.116;2022-08-21T14:34:54;3.17;;;2.70;;
11203;SDS011;5659;49.408;11.116;2022-08-21T14:37:21;4.47;;;3.33;;
11203;SDS011;5659;49.408;11.116;2022-08-21T14:39:47;4.28;;;3.55;;
11203;SDS011;5659;49.408;11.116;2022-08-21T14:42:13;3.40;;;3.10;;
11203;SDS011;5659;49.408;11.116;2022-08-21T14:44:39;4.35;;;2.80;;
11203;SDS011;5659;49.408;11.116;2022-08-21T14:47:05;4.28;;;3.17;;
11203;SDS011;5659;49.408;11.116;2022-08-21T14:49:32;3.22;;;2.92;;
11203;SDS011;5659;49.408;11.116;2022-08-21T14:51:58;3.20;;;2.83;;
11203;SDS011;5659;49.408;11.116;2022-08-21T14:54:27;3.75;;;3.25;;
11203;SDS011;5659;49.408;11.116;2022-08-21T14:56:54;4.63;;;2.90;;
11203;SDS011;5659;49.408;11.116;2022-08-21T14:59:20;4.50;;;3.10;;
11203;SDS011;5659;49.408;11.116;2022-08-21T15:01:46;3.08;;;2.78;;
11203;SDS011;5659;49.408;11.116;2022-08-21T15:04:14;4.85;;;2.80;;
11203;SDS011;5659;49.408;11.116;2022-08-21T15:06:40;5.78;;;2.60;;
11203;SDS011;5659;49.408;11.116;2022-08-21T15:09:06;2.83;;;2.60;;
11203;SDS011;5659;49.408;11.116;2022-08-21T15:11:32;2.97;;;2.63;;
11203;SDS011;5659;49.408;11.116;2022-08-21T15:13:59;2.47;;;2.20;;
11203;SDS011;5659;49.408;11.116;2022-08-21T15:16:26;2.85;;;2.65;;
11203;SDS011;5659;49.408;11.116;2022-08-21T15:18:52;6.40;;;2.67;;
11203;SDS011;5659;49.408;11.116;2022-08-21T15:21:18;2.97;;;2.50;;
11203;SDS011;5659;49.408;11.116;2022-08-21T15:23:45;2.95;;;2.42;;
11203;SDS011;5659;49.408;11.116;2022-08-21T15:26:11;4.45;;;2.70;;
11203;SDS011;5659;49.408;11.116;2022-08-21T15:28:37;3.83;;;2.50;;
11203;SDS011;5659;49.408;11.116;2022-08-21T15:31:04;3.60;;;2.45;;
11203;SDS011;5659;49.408;11.116;2022-08-21T15:33:30;4.40;;;2.80;;
11203;SDS011;5659;49.408;11.116;2022-08-21T15:35:56;2.40;;;2.20;;
11203;SDS011;5659;49.408;11.116;2022-08-21T15:38:23;4.18;;;2.35;;
11203;SDS011;5659;49.408;11.116;2022-08-21T15:40:49;4.07;;;2.38;;
11203;SDS011;5659;49.408;11.116;2022-08-21T15:45:48;5.47;;;2.58;;
11203;SDS011;5659;49.408;11.116;2022-08-21T15:48:14;2.53;;;2.30;;
11203;SDS011;5659;49.408;11.116;2022-08-21T15:50:40;4.38;;;2.75;;
11203;SDS011;5659;49.408;11.116;2022-08-21T15:53:06;5.00;;;2.75;;